SARC/CNQ METAR and TAF weather

Enter ICAO airport designator
Station Type Date Time Source
SARC METAR 2020/01/19 23:00 UTC NOAA

SARC 192300Z 09006KT 9999 FEW050TCU SCT200 33/25 Q1007


Station Type Date Time Source
SARC Decoded METAR 2020/01/19 23:00 UTC NOAA

Corrientes Aero., Argentina (SARC) 27-27S 058-46W 62M
Jan 19, 2020 - 06:00 PM EST / 2020.01.19 2300 UTC
Wind: from the E (090 degrees) at 7 MPH (6 KT):0
Visibility: greater than 7 mile(s):0
Sky conditions: partly cloudy
Weather: Towering cumulus clouds observed
Temperature: 91 F (33 C)
Heat index: 103.5 F (39.7 C):1
Dew Point: 77 F (25 C)
Relative Humidity: 62%
Pressure (altimeter): 29.74 in. Hg (1007 hPa)
ob: SARC 192300Z 09006KT 9999 FEW050TCU SCT200 33/25 Q1007
cycle: 23

Station Type Date Time Source
SARC TAF 2019/12/07 22:55 UTC NOAA

TAF
AMD SARC 072155Z 0722/0818 09010KT 5000 FU NSC TX34/0818Z TN19/0809Z
BECMG 0724/0801 8000 NSC

Example: see airport list